Time;durP1;ratioP1;P1;durP2;ratioP2;P2;SDS_P1;SDS_P2;PMS_P1;PMS_P2;Temp;Humidity;BMP_temperature;BMP_pressure;BME280_temperature;BME280_humidity;BME280_pressure;Samples;Min_cycle;Max_cycle;Signal;HPM_P1;HPM_P2
2022/06/04 00:02:18;;;;;;;28.15;18.75;;;;;;;24.18;63.72;101001.81;4969829;28;20055;-65
2022/06/04 00:05:04;;;;;;;26.35;18.73;;;;;;;24.29;63.26;100997.81;4972043;28;20486;-65
2022/06/04 00:07:50;;;;;;;31.40;21.38;;;;;;;24.23;63.35;100991.06;4971317;28;20039;-65
2022/06/04 00:17:05;;;;;;;23.83;19.58;;;;;;;24.24;63.04;100998.22;4966656;28;20038;-67
2022/06/04 00:19:50;;;;;;;33.65;20.58;;;;;;;24.08;63.30;100994.25;4965496;28;20042;-66
2022/06/04 00:22:35;;;;;;;28.38;21.48;;;;;;;23.44;65.16;101006.19;4971505;28;20050;-64
2022/06/04 00:25:20;;;;;;;26.35;20.85;;;;;;;23.22;66.21;101001.78;4953106;29;20043;-64
2022/06/04 00:28:09;;;;;;;26.65;20.60;;;;;;;22.84;68.39;100994.97;4968739;28;20043;-64
2022/06/04 00:30:56;;;;;;;27.58;20.65;;;;;;;22.72;68.55;100998.09;4971971;28;20038;-64
2022/06/04 00:33:41;;;;;;;24.67;19.95;;;;;;;22.45;70.07;101000.31;4969626;28;20047;-64
2022/06/04 00:36:26;;;;;;;29.98;21.15;;;;;;;22.40;69.90;100997.94;4971682;28;20042;-64
2022/06/04 00:39:11;;;;;;;31.35;20.23;;;;;;;22.37;68.53;100989.59;4972056;28;20483;-64
2022/06/04 00:42:12;;;;;;;30.05;19.13;;;;;;;22.46;67.75;100992.81;4972275;28;20043;-64
2022/06/04 00:45:28;;;;;;;30.60;19.65;;;;;;;22.20;68.74;100987.56;4963005;28;20043;-64
2022/06/04 00:48:13;;;;;;;27.00;18.88;;;;;;;22.03;68.42;100984.28;4973487;28;20034;-64
2022/06/04 00:50:58;;;;;;;24.83;20.50;;;;;;;21.54;71.34;100986.63;4971706;28;20042;-64
2022/06/04 00:53:43;;;;;;;27.48;20.15;;;;;;;21.39;72.14;100982.97;4967829;28;20042;-64
2022/06/04 00:56:37;;;;;;;27.60;19.63;;;;;;;21.30;72.65;100986.06;4973524;28;20046;-64
2022/06/04 01:00:10;;;;;;;26.40;20.10;;;;;;;21.10;75.76;100987.41;4975726;28;20039;-64
2022/06/04 01:03:12;;;;;;;31.83;20.67;;;;;;;21.12;75.99;100990.59;4975579;28;20054;-64
2022/06/04 01:06:21;;;;;;;24.33;17.83;;;;;;;21.12;76.19;100978.75;4961474;28;20043;-65
2022/06/04 01:09:20;;;;;;;23.98;18.08;;;;;;;21.53;74.24;100977.56;4969826;28;20491;-64
2022/06/04 01:12:36;;;;;;;24.67;17.95;;;;;;;21.84;72.25;100986.50;4972805;28;20035;-64
2022/06/04 01:15:59;;;;;;;26.25;17.80;;;;;;;21.87;71.92;100980.97;4978221;28;20051;-65
2022/06/04 01:19:01;;;;;;;20.20;15.80;;;;;;;21.98;71.51;100970.00;4967498;28;20039;-65
2022/06/04 01:22:15;;;;;;;22.17;15.65;;;;;;;22.03;71.03;100967.66;4977882;28;20070;-65
2022/06/04 01:25:12;;;;;;;23.05;15.73;;;;;;;22.23;70.08;100959.06;4973925;28;20042;-64
2022/06/04 01:28:08;;;;;;;18.70;14.50;;;;;;;22.05;70.76;100964.50;4975279;28;20046;-64
2022/06/04 01:31:00;;;;;;;18.25;14.45;;;;;;;22.22;69.92;100955.50;4973536;28;20027;-65
2022/06/04 01:33:52;;;;;;;21.33;15.55;;;;;;;21.84;72.47;100954.03;4975131;28;20046;-64
2022/06/04 01:36:45;;;;;;;23.17;15.43;;;;;;;21.71;72.93;100959.09;4974112;28;20055;-65
2022/06/04 01:42:44;;;;;;;20.52;15.10;;;;;;;21.47;74.20;100956.97;4975148;28;20055;-64
2022/06/04 01:45:31;;;;;;;25.55;18.70;;;;;;;21.34;74.55;100959.22;4969226;28;20043;-65
2022/06/04 01:48:18;;;;;;;22.25;17.92;;;;;;;21.07;76.45;100959.72;4955608;29;20047;-65
2022/06/04 01:51:05;;;;;;;25.05;17.90;;;;;;;21.23;75.22;100958.31;4965242;28;20410;-65
2022/06/04 01:54:00;;;;;;;25.77;18.23;;;;;;;21.22;75.25;100953.97;4970719;28;20103;-65
2022/06/04 01:56:51;;;;;;;24.60;19.02;;;;;;;21.13;76.08;100945.16;4962739;28;20039;-66
2022/06/04 01:59:41;;;;;;;30.85;20.20;;;;;;;21.00;77.11;100962.41;4974503;28;20315;-65
2022/06/04 02:02:35;;;;;;;26.90;20.50;;;;;;;20.60;79.07;100954.88;4974696;28;20050;-64
2022/06/04 02:05:26;;;;;;;24.63;18.67;;;;;;;20.75;78.45;100954.66;4974275;28;20035;-64
2022/06/04 02:08:14;;;;;;;24.45;18.75;;;;;;;20.59;79.19;100961.56;4955133;29;20411;-65
2022/06/04 02:11:12;;;;;;;26.38;19.23;;;;;;;20.36;80.60;100945.91;4972868;28;20035;-65
2022/06/04 02:14:04;;;;;;;25.27;18.65;;;;;;;20.23;81.32;100938.19;4968546;28;20042;-65
2022/06/04 02:16:53;;;;;;;26.13;19.15;;;;;;;20.16;81.31;100938.13;4973373;28;20039;-64
2022/06/04 02:19:38;;;;;;;25.17;18.40;;;;;;;20.12;82.30;100949.09;4965980;28;20038;-64
2022/06/04 02:22:23;;;;;;;22.85;18.08;;;;;;;20.65;79.52;100944.28;4974218;28;20507;-63
2022/06/04 02:25:11;;;;;;;26.75;16.70;;;;;;;20.57;79.51;100939.81;4974402;28;20047;-63
2022/06/04 02:27:57;;;;;;;22.35;17.23;;;;;;;20.28;81.37;100935.91;4969092;28;20055;-63
2022/06/04 02:31:24;;;;;;;20.92;16.00;;;;;;;20.30;81.37;100936.31;4954994;29;20043;-64
2022/06/04 02:34:33;;;;;;;27.52;16.52;;;;;;;20.55;80.07;100942.19;4969481;28;20357;-65
2022/06/04 02:37:51;;;;;;;25.77;16.45;;;;;;;20.59;79.58;100942.22;4970419;28;20034;-64
2022/06/04 02:40:51;;;;;;;21.67;15.23;;;;;;;20.90;78.50;100934.28;4954767;29;20488;-64
2022/06/04 02:43:45;;;;;;;27.63;15.32;;;;;;;20.80;77.93;100923.91;4961820;28;20871;-64
2022/06/04 02:46:45;;;;;;;19.03;15.07;;;;;;;20.59;80.03;100929.19;4973326;28;20030;-64
2022/06/04 02:49:56;;;;;;;25.88;15.25;;;;;;;20.80;78.66;100926.66;4971020;28;20278;-64
2022/06/04 02:52:44;;;;;;;18.65;14.18;;;;;;;20.84;78.23;100930.25;4972642;28;20042;-65
2022/06/04 02:55:35;;;;;;;18.73;13.43;;;;;;;20.92;77.52;100936.66;4973048;28;20054;-64
2022/06/04 02:58:22;;;;;;;23.00;14.75;;;;;;;20.62;78.09;100938.72;4969983;28;20039;-64
2022/06/04 03:01:09;;;;;;;18.17;13.20;;;;;;;20.77;77.49;100932.16;4968370;28;20035;-64
2022/06/04 03:03:54;;;;;;;17.20;12.80;;;;;;;20.77;75.88;100934.94;4964794;28;20043;-64
2022/06/04 03:06:39;;;;;;;17.15;12.63;;;;;;;20.53;76.10;100932.66;4972022;28;20047;-64
2022/06/04 03:09:24;;;;;;;18.58;13.32;;;;;;;20.72;75.46;100921.47;4967635;28;20039;-64
2022/06/04 03:12:11;;;;;;;20.73;14.32;;;;;;;20.76;74.15;100914.78;4954271;29;20043;-64
2022/06/04 03:14:56;;;;;;;18.35;12.90;;;;;;;20.67;74.73;100932.84;4972192;28;20042;-63
2022/06/04 03:17:44;;;;;;;21.63;13.73;;;;;;;20.54;75.57;100937.03;4971917;28;20043;-63
2022/06/04 03:20:29;;;;;;;16.80;12.05;;;;;;;20.68;76.00;100937.97;4970599;28;20043;-63
2022/06/04 03:23:14;;;;;;;15.52;12.63;;;;;;;20.78;74.77;100930.97;4973330;28;20051;-63
2022/06/04 03:25:59;;;;;;;18.00;13.07;;;;;;;20.99;72.61;100930.41;4976337;28;20039;-63
2022/06/04 03:28:44;;;;;;;15.52;12.35;;;;;;;20.85;73.38;100939.34;4965663;28;20042;-63
2022/06/04 03:31:30;;;;;;;16.98;13.40;;;;;;;20.81;74.90;100941.28;4978215;28;20034;-63
2022/06/04 03:34:15;;;;;;;15.32;11.15;;;;;;;21.03;73.79;100937.53;4972272;28;20039;-63
2022/06/04 03:37:00;;;;;;;17.80;12.35;;;;;;;21.26;72.51;100932.66;4971534;28;20406;-63
2022/06/04 03:39:45;;;;;;;20.05;11.70;;;;;;;21.29;72.25;100942.97;4972406;28;20038;-63
2022/06/04 03:42:30;;;;;;;28.55;12.50;;;;;;;21.19;72.40;100946.44;4971320;28;20047;-63
2022/06/04 03:45:15;;;;;;;16.02;11.88;;;;;;;21.11;73.05;100936.44;4973723;28;20494;-64
2022/06/04 03:48:00;;;;;;;18.33;12.35;;;;;;;21.22;72.34;100937.38;4968527;28;20511;-63
2022/06/04 03:50:45;;;;;;;16.85;11.40;;;;;;;21.28;72.60;100943.38;4971071;28;20039;-63
2022/06/04 03:53:30;;;;;;;18.02;11.07;;;;;;;21.39;71.99;100948.97;4973201;28;20038;-63
2022/06/04 03:56:16;;;;;;;20.30;12.68;;;;;;;21.25;71.79;100944.09;4972608;28;20043;-63
2022/06/04 03:59:01;;;;;;;21.85;13.07;;;;;;;20.93;73.06;100957.59;4980642;28;20043;-63
2022/06/04 04:01:53;;;;;;;17.63;11.05;;;;;;;20.99;73.11;100953.31;4963595;28;20043;-64
2022/06/04 04:04:37;;;;;;;25.50;12.30;;;;;;;21.30;72.29;100947.31;4972746;28;20422;-64
2022/06/04 04:07:22;;;;;;;22.65;11.35;;;;;;;21.75;70.14;100948.84;4972660;28;20510;-64
2022/06/04 04:10:09;;;;;;;17.70;11.55;;;;;;;21.95;68.79;100943.06;4972763;28;20039;-64
2022/06/04 04:12:54;;;;;;;19.15;12.00;;;;;;;22.14;67.77;100951.91;4955178;28;20047;-64
2022/06/04 04:15:39;;;;;;;14.05;11.25;;;;;;;22.25;67.38;100959.47;4957237;28;20051;-64
2022/06/04 04:18:23;;;;;;;16.30;11.27;;;;;;;22.34;66.69;100952.41;4965741;28;20042;-64
2022/06/04 04:21:12;;;;;;;16.67;10.70;;;;;;;22.39;66.54;100951.22;4973864;28;20038;-63
2022/06/04 04:23:57;;;;;;;17.35;10.80;;;;;;;22.42;66.42;100950.44;4978373;28;20407;-64
2022/06/04 04:26:42;;;;;;;15.68;10.77;;;;;;;22.31;66.58;100931.00;4980803;28;20047;-63
2022/06/04 04:29:26;;;;;;;20.02;11.02;;;;;;;22.23;66.97;100923.03;4978651;28;20046;-64
2022/06/04 04:32:11;;;;;;;18.20;10.73;;;;;;;22.41;66.44;100921.13;4973159;28;20043;-64
2022/06/04 04:34:56;;;;;;;16.02;10.25;;;;;;;22.44;66.20;100929.47;4972456;28;20490;-64
2022/06/04 04:37:42;;;;;;;16.83;10.25;;;;;;;22.50;65.93;100930.66;4979374;28;20043;-64
2022/06/04 04:40:30;;;;;;;16.00;10.18;;;;;;;22.63;65.54;100922.78;4975693;28;20034;-64
2022/06/04 04:43:14;;;;;;;20.27;9.55;;;;;;;22.83;65.01;100937.91;4974674;28;20042;-64
2022/06/04 04:46:05;;;;;;;15.02;9.48;;;;;;;23.01;64.27;100946.25;4977695;28;20565;-64
2022/06/04 04:48:51;;;;;;;19.17;11.48;;;;;;;23.01;64.53;100946.25;4978066;28;20070;-64
2022/06/04 04:51:36;;;;;;;14.63;10.50;;;;;;;22.92;64.73;100949.44;4978321;28;20038;-64
2022/06/04 04:54:21;;;;;;;17.73;10.23;;;;;;;22.85;65.12;100949.44;4977286;28;20039;-64
2022/06/04 04:57:06;;;;;;;20.35;10.68;;;;;;;22.68;65.98;100961.22;4978213;28;20415;-64
2022/06/04 04:59:51;;;;;;;20.10;10.98;;;;;;;22.21;68.82;100959.44;4978471;28;20039;-63
2022/06/04 05:02:36;;;;;;;19.38;10.05;;;;;;;22.59;66.90;100955.25;4975372;28;20042;-64
2022/06/04 05:05:21;;;;;;;20.77;9.93;;;;;;;23.04;65.15;100970.47;4976301;28;20039;-64
2022/06/04 05:08:06;;;;;;;16.02;9.75;;;;;;;23.18;64.63;100981.56;4978228;28;20054;-64
2022/06/04 05:10:51;;;;;;;15.35;9.57;;;;;;;23.36;63.77;100976.84;4978618;28;20038;-63
2022/06/04 05:13:37;;;;;;;16.80;11.68;;;;;;;23.28;64.67;100978.03;4974271;28;20061;-63
2022/06/04 05:16:24;;;;;;;16.90;9.65;;;;;;;23.62;63.19;100983.22;4977813;28;20406;-64
2022/06/04 05:19:09;;;;;;;16.63;9.95;;;;;;;23.58;63.54;100988.75;4977410;28;20070;-64
2022/06/04 05:21:55;;;;;;;16.15;10.43;;;;;;;23.49;64.05;100991.16;4977694;28;20071;-63
2022/06/04 05:24:40;;;;;;;16.90;9.75;;;;;;;23.58;63.58;100980.44;4980692;28;20438;-64
2022/06/04 05:27:25;;;;;;;12.65;9.40;;;;;;;23.76;62.87;100975.69;4977991;28;20050;-64
2022/06/04 05:30:11;;;;;;;12.10;9.25;;;;;;;24.07;61.83;100984.34;4974377;28;20046;-63
2022/06/04 05:32:57;;;;;;;18.10;9.68;;;;;;;24.11;61.44;100985.94;4969026;28;20050;-64
2022/06/04 05:35:42;;;;;;;17.23;9.23;;;;;;;24.23;61.06;101001.41;4957694;28;20514;-64
2022/06/04 05:38:27;;;;;;;13.98;8.82;;;;;;;24.44;60.19;100990.22;4955777;29;20050;-64
2022/06/04 05:41:16;;;;;;;16.63;9.50;;;;;;;24.63;59.79;100989.75;4963122;28;20053;-64
2022/06/04 05:44:00;;;;;;;18.65;9.73;;;;;;;24.54;60.09;100983.81;4969295;28;20065;-64
2022/06/04 05:46:46;;;;;;;10.77;8.00;;;;;;;25.03;58.63;100976.44;4974297;28;20050;-64
2022/06/04 05:49:31;;;;;;;11.57;8.75;;;;;;;25.52;57.49;100987.22;4974758;28;20049;-64
2022/06/04 05:52:16;;;;;;;13.32;7.35;;;;;;;25.68;56.67;100985.94;4974810;28;20058;-64
2022/06/04 05:55:01;;;;;;;14.38;8.50;;;;;;;25.92;56.10;100987.69;4973741;28;20042;-64
2022/06/04 05:57:46;;;;;;;14.50;7.53;;;;;;;26.01;55.58;100987.97;4974627;28;20139;-64
2022/06/04 06:00:31;;;;;;;13.38;7.38;;;;;;;26.04;55.91;100984.38;4974681;28;20050;-64
2022/06/04 06:03:17;;;;;;;16.52;7.13;;;;;;;25.98;55.48;100995.19;4972215;28;20403;-63
2022/06/04 06:06:02;;;;;;;11.43;6.88;;;;;;;26.08;55.44;100999.06;4977033;28;20038;-63
2022/06/04 06:08:46;;;;;;;10.10;6.70;;;;;;;26.18;55.38;101000.94;4971808;28;20136;-63
2022/06/04 06:11:32;;;;;;;14.30;7.60;;;;;;;26.37;54.24;100996.78;4973170;28;20050;-63
2022/06/04 06:14:17;;;;;;;15.48;7.72;;;;;;;26.57;54.24;101005.31;4972788;28;20045;-63
2022/06/04 06:17:04;;;;;;;12.40;7.38;;;;;;;26.61;53.37;100997.69;4970266;28;20062;-63
2022/06/04 06:19:49;;;;;;;11.93;6.95;;;;;;;26.30;54.82;101005.25;4974062;28;20046;-62
2022/06/04 06:22:35;;;;;;;10.85;6.00;;;;;;;26.48;53.82;100999.44;4974651;28;20053;-63
2022/06/04 06:25:20;;;;;;;12.40;6.05;;;;;;;26.68;53.51;101003.19;4968946;28;20053;-62
2022/06/04 06:28:07;;;;;;;11.90;6.18;;;;;;;26.86;52.98;101012.13;4968882;28;20037;-63
2022/06/04 06:30:54;;;;;;;246.15;48.42;;;;;;;26.73;53.31;101014.66;4962385;28;20042;-64
2022/06/04 06:33:39;;;;;;;67.63;16.15;;;;;;;26.94;53.19;101019.22;4974393;28;20494;-63
2022/06/04 06:36:25;;;;;;;14.23;6.30;;;;;;;27.18;52.48;101018.06;4967314;28;20504;-63
2022/06/04 06:39:10;;;;;;;8.77;5.72;;;;;;;27.39;51.60;101011.34;4968793;28;20424;-62
2022/06/04 06:41:54;;;;;;;15.95;6.22;;;;;;;27.45;51.63;101018.06;4969027;28;20042;-63
2022/06/04 06:44:53;;;;;;;35.13;6.68;;;;;;;27.33;51.88;101026.25;4966343;28;20069;-62
2022/06/04 06:47:40;;;;;;;12.20;5.90;;;;;;;27.43;51.15;101028.84;4974252;28;20058;-63
2022/06/04 06:50:26;;;;;;;14.52;6.15;;;;;;;27.33;51.66;101023.44;4972680;28;20049;-62
2022/06/04 06:53:11;;;;;;;23.17;6.55;;;;;;;27.47;51.00;101028.81;4973721;28;20054;-63
2022/06/04 06:55:58;;;;;;;9.32;4.90;;;;;;;27.68;50.30;101038.88;4978072;28;20061;-63
2022/06/04 06:58:45;;;;;;;7.43;4.55;;;;;;;27.56;49.79;101045.84;4964931;28;20526;-63
2022/06/04 07:01:31;;;;;;;12.32;5.82;;;;;;;27.56;50.27;101048.66;4954697;29;20054;-63
2022/06/04 07:04:16;;;;;;;13.77;5.75;;;;;;;27.78;49.58;101049.91;4970105;28;20049;-63
2022/06/04 07:07:03;;;;;;;11.38;5.65;;;;;;;27.22;51.33;101055.13;4973085;28;20045;-62
2022/06/04 07:09:48;;;;;;;8.15;5.40;;;;;;;27.74;49.85;101048.34;4971059;28;20049;-63
2022/06/04 07:12:33;;;;;;;11.27;6.22;;;;;;;28.09;49.38;101054.13;4973547;28;20042;-63
2022/06/04 07:15:18;;;;;;;13.05;4.65;;;;;;;28.58;47.62;101048.06;4973262;28;20513;-63
2022/06/04 07:18:03;;;;;;;12.38;5.38;;;;;;;28.92;46.86;101046.53;4955495;28;20522;-63
2022/06/04 07:20:49;;;;;;;9.13;4.78;;;;;;;29.43;45.34;101049.81;4965069;28;20035;-63
2022/06/04 07:23:35;;;;;;;12.80;4.00;;;;;;;29.04;45.82;101050.69;4966515;28;20069;-64
2022/06/04 07:26:20;;;;;;;10.98;4.57;;;;;;;29.04;45.96;101044.31;4972639;28;20049;-63
2022/06/04 07:29:06;;;;;;;11.48;4.30;;;;;;;29.02;45.85;101046.75;4969832;28;20508;-63
2022/06/04 07:31:52;;;;;;;9.40;4.65;;;;;;;29.05;45.95;101032.69;4973045;28;20049;-63
2022/06/04 07:34:37;;;;;;;16.70;4.60;;;;;;;28.94;46.21;101039.72;4969857;28;20045;-64
2022/06/04 07:37:22;;;;;;;20.08;4.63;;;;;;;29.50;44.68;101032.84;4953535;29;20054;-64
2022/06/04 07:40:08;;;;;;;10.63;4.80;;;;;;;29.20;45.42;101030.34;4956814;28;20043;-63
2022/06/04 07:42:53;;;;;;;14.23;4.00;;;;;;;29.44;44.29;101022.59;4953621;29;20059;-63
2022/06/04 07:45:39;;;;;;;7.55;3.97;;;;;;;29.59;44.25;101035.03;4965195;28;20061;-63
2022/06/04 07:48:25;;;;;;;6.65;4.05;;;;;;;29.60;43.76;101034.59;4972463;28;20250;-63
2022/06/04 07:51:10;;;;;;;8.88;4.05;;;;;;;28.86;44.26;101023.06;4974154;28;20046;-64
2022/06/04 07:53:55;;;;;;;8.65;3.83;;;;;;;26.30;50.32;101014.41;4969432;28;20061;-65
2022/06/04 07:56:41;;;;;;;6.28;3.40;;;;;;;25.87;51.95;101018.78;4970320;28;20041;-64
2022/06/04 07:59:26;;;;;;;6.45;3.03;;;;;;;25.22;53.92;101009.31;4971844;28;20057;-65
2022/06/04 08:02:12;;;;;;;16.77;4.30;;;;;;;25.04;54.79;101015.00;4968548;28;20050;-65
2022/06/04 08:04:57;;;;;;;14.35;4.13;;;;;;;24.95;55.17;101017.44;4972252;28;20057;-65
2022/06/04 08:07:42;;;;;;;20.63;4.10;;;;;;;24.70;56.17;101011.97;4971752;28;20039;-65
2022/06/04 08:10:27;;;;;;;13.38;3.45;;;;;;;24.50;57.11;101012.84;4972701;28;20049;-63
2022/06/04 08:13:31;;;;;;;7.57;3.85;;;;;;;24.63;56.77;101019.56;4971503;28;20054;-63
2022/06/04 08:16:16;;;;;;;7.25;3.20;;;;;;;24.58;57.10;101017.97;4964415;28;20050;-65
2022/06/04 08:19:02;;;;;;;11.02;4.50;;;;;;;24.57;57.04;101010.84;4966799;28;20430;-64
2022/06/04 08:21:47;;;;;;;8.93;3.45;;;;;;;24.45;57.67;101014.03;4966986;28;20062;-65
2022/06/04 08:24:32;;;;;;;6.90;3.45;;;;;;;24.63;57.12;101008.44;4961635;28;20078;-65
2022/06/04 08:27:19;;;;;;;11.77;4.55;;;;;;;24.61;57.28;101017.16;4968276;28;20463;-65
2022/06/04 08:30:04;;;;;;;11.68;4.13;;;;;;;24.67;56.87;101009.22;4976015;28;20046;-65
2022/06/04 08:32:49;;;;;;;12.32;3.75;;;;;;;24.70;56.82;101011.97;4965485;28;20570;-65
2022/06/04 08:35:35;;;;;;;7.43;3.13;;;;;;;24.73;56.88;101024.28;4971812;28;20514;-64
2022/06/04 08:38:20;;;;;;;7.07;3.30;;;;;;;24.73;56.47;101027.06;4957240;28;20066;-64
2022/06/04 08:41:08;;;;;;;9.75;3.30;;;;;;;24.85;56.21;101025.81;4953056;29;20046;-65
2022/06/04 08:44:06;;;;;;;8.35;3.20;;;;;;;24.92;55.88;101032.16;4953218;29;20062;-65
2022/06/04 08:47:01;;;;;;;10.63;4.00;;;;;;;24.89;55.86;101021.81;4958114;28;20057;-65
2022/06/04 08:49:48;;;;;;;6.53;3.25;;;;;;;25.06;55.50;101020.94;4964616;28;20321;-65
2022/06/04 08:52:41;;;;;;;6.25;3.13;;;;;;;25.07;55.50;101028.09;4971908;28;20049;-65
2022/06/04 08:59:02;;;;;;;7.30;3.33;;;;;;;25.24;54.32;101036.75;4970798;28;20046;-65
2022/06/04 09:01:54;;;;;;;12.60;3.67;;;;;;;25.30;54.47;101038.69;4952742;29;20050;-65
2022/06/04 09:05:01;;;;;;;9.57;3.30;;;;;;;25.33;54.18;101045.44;4955214;29;20131;-65
2022/06/04 09:07:52;;;;;;;9.45;3.35;;;;;;;25.27;53.92;101042.31;4968081;28;20061;-65
2022/06/04 09:10:55;;;;;;;5.57;2.50;;;;;;;25.43;53.40;101034.25;4971565;28;20066;-64
2022/06/04 09:13:48;;;;;;;10.40;3.85;;;;;;;25.63;53.06;101036.50;4971235;28;20430;-65
2022/06/04 09:16:38;;;;;;;6.05;3.25;;;;;;;25.72;51.39;101036.81;4967338;28;20054;-65
2022/06/04 09:19:27;;;;;;;5.88;2.78;;;;;;;25.68;53.12;101036.06;4968151;28;20055;-65
2022/06/04 09:22:23;;;;;;;8.65;4.13;;;;;;;25.65;53.17;101045.25;4971297;28;20045;-65
2022/06/04 09:25:16;;;;;;;6.63;3.47;;;;;;;25.58;53.25;101037.75;4975083;28;20053;-64
2022/06/04 09:28:09;;;;;;;7.47;3.50;;;;;;;25.57;53.14;101040.94;4971486;28;20045;-65
2022/06/04 09:31:19;;;;;;;7.43;2.80;;;;;;;25.54;52.79;101034.97;4970516;28;20506;-65
2022/06/04 09:34:07;;;;;;;8.75;2.85;;;;;;;25.57;53.24;101033.38;4962462;28;20054;-64
2022/06/04 09:36:53;;;;;;;7.22;2.67;;;;;;;25.52;53.01;101031.78;4973729;28;20053;-65
2022/06/04 09:39:41;;;;;;;14.35;4.20;;;;;;;25.68;52.23;101033.28;4956539;28;20066;-65
2022/06/04 09:42:29;;;;;;;6.65;2.55;;;;;;;25.70;52.04;101025.31;4968605;28;20514;-63
2022/06/04 09:45:26;;;;;;;8.45;2.85;;;;;;;25.85;51.74;101024.00;4974393;28;20054;-64
2022/06/04 09:48:20;;;;;;;8.93;3.63;;;;;;;25.69;52.36;101035.66;4974734;28;20403;-65
2022/06/04 09:51:28;;;;;;;10.75;2.60;;;;;;;25.85;51.09;101032.34;4957242;28;20046;-64
2022/06/04 09:54:23;;;;;;;8.55;2.67;;;;;;;25.84;51.31;101030.75;4955874;29;20047;-65
2022/06/04 09:57:28;;;;;;;9.02;2.50;;;;;;;26.05;50.48;101024.19;4971569;28;20062;-65
2022/06/04 10:00:23;;;;;;;8.73;2.85;;;;;;;26.08;50.52;101028.94;4966977;28;20522;-65
2022/06/04 10:03:17;;;;;;;8.93;2.10;;;;;;;26.17;49.94;101029.25;4971233;28;20399;-65
2022/06/04 10:06:11;;;;;;;10.52;2.75;;;;;;;26.13;50.46;101023.72;4973849;28;20049;-65
2022/06/04 10:12:16;;;;;;;8.32;2.90;;;;;;;26.30;49.32;101010.81;4967084;28;20529;-64
2022/06/04 10:15:01;;;;;;;5.43;1.80;;;;;;;26.32;49.19;101005.59;4973593;28;20042;-63
2022/06/04 10:17:59;;;;;;;10.15;2.38;;;;;;;26.47;48.39;101009.81;4974544;28;20123;-65
2022/06/04 10:21:05;;;;;;;6.43;2.63;;;;;;;26.61;47.35;101001.28;4973669;28;20041;-65
2022/06/04 10:23:54;;;;;;;6.60;1.70;;;;;;;26.57;48.18;101005.31;4973212;28;20065;-65
2022/06/04 10:27:01;;;;;;;11.32;2.33;;;;;;;26.57;48.25;101008.09;4973534;28;20037;-65
2022/06/04 10:29:49;;;;;;;7.63;2.33;;;;;;;26.47;48.13;100998.66;4974211;28;20054;-65
2022/06/04 10:32:46;;;;;;;10.85;2.28;;;;;;;26.59;47.04;100997.31;4956056;28;20055;-65
2022/06/04 10:35:39;;;;;;;8.23;2.00;;;;;;;26.51;47.58;101005.00;4954416;29;20050;-65
2022/06/04 10:38:34;;;;;;;11.90;2.38;;;;;;;26.97;44.18;101000.84;4972288;28;20050;-65
2022/06/04 10:41:42;;;;;;;8.73;2.00;;;;;;;27.06;45.02;100993.53;4970686;28;20498;-65
2022/06/04 10:44:58;;;;;;;11.52;2.20;;;;;;;26.84;45.63;101000.56;4973980;28;20163;-65
2022/06/04 10:47:49;;;;;;;9.77;3.15;;;;;;;26.82;46.11;101005.78;4972984;28;20054;-65
2022/06/04 10:54:30;;;;;;;8.38;2.40;;;;;;;27.02;45.42;100998.34;4973740;28;20049;-65
2022/06/04 10:57:32;;;;;;;9.82;2.20;;;;;;;27.23;44.81;100989.66;4958137;28;20062;-65
2022/06/04 11:00:30;;;;;;;9.93;2.08;;;;;;;27.15;45.64;100985.41;4966920;28;20042;-64
2022/06/04 11:03:48;;;;;;;9.10;2.22;;;;;;;27.13;45.03;100987.81;4972808;28;20066;-65
2022/06/04 11:06:42;;;;;;;14.93;2.17;;;;;;;27.30;45.23;100969.22;4965074;28;20058;-64
2022/06/04 11:09:35;;;;;;;12.07;2.22;;;;;;;27.70;43.32;100972.16;4963747;28;20045;-65
2022/06/04 11:13:07;;;;;;;9.63;2.78;;;;;;;27.90;43.04;100970.19;4971802;28;20050;-63
2022/06/04 11:16:07;;;;;;;11.02;2.63;;;;;;;28.02;43.21;100969.59;4962135;28;20049;-65
2022/06/04 11:18:56;;;;;;;8.02;2.40;;;;;;;28.42;42.04;100970.41;4974220;28;20056;-65
2022/06/04 11:22:03;;;;;;;11.52;2.80;;;;;;;28.73;41.37;100968.19;4972900;28;20045;-65
2022/06/04 11:25:14;;;;;;;11.93;2.63;;;;;;;28.27;42.93;100963.53;4977657;28;20422;-65
2022/06/04 11:28:07;;;;;;;5.53;2.08;;;;;;;27.86;44.10;100956.28;4972335;28;20049;-65
2022/06/04 11:31:14;;;;;;;6.43;3.30;;;;;;;27.73;44.68;100960.16;4963669;28;20042;-64
2022/06/04 11:34:15;;;;;;;5.13;2.22;;;;;;;27.51;45.49;100942.97;4973115;28;20045;-65
2022/06/04 11:37:15;;;;;;;9.93;3.53;;;;;;;28.15;44.09;100942.56;4966835;28;20062;-65
2022/06/04 11:40:06;;;;;;;11.57;3.47;;;;;;;28.72;42.30;100949.81;4972187;28;20041;-65
2022/06/04 11:43:06;;;;;;;15.80;4.25;;;;;;;28.57;42.56;100943.72;4973107;28;20045;-65
2022/06/04 11:46:00;;;;;;;13.75;4.20;;;;;;;28.16;43.67;100946.97;4972790;28;20077;-65
2022/06/04 11:49:03;;;;;;;8.85;3.50;;;;;;;28.19;44.17;100939.72;4971253;28;20049;-65
2022/06/04 11:52:24;;;;;;;10.30;5.68;;;;;;;28.40;43.63;100945.66;4969141;28;20041;-64
2022/06/04 11:55:15;;;;;;;20.83;6.15;;;;;;;28.30;43.24;100934.69;4968153;28;20425;-65
2022/06/04 11:58:18;;;;;;;8.80;3.78;;;;;;;28.19;43.74;100939.72;4972792;28;20058;-65
2022/06/04 12:01:09;;;;;;;14.00;4.45;;;;;;;27.99;44.46;100934.06;4959014;28;20050;-65
2022/06/04 12:04:14;;;;;;;7.05;3.60;;;;;;;27.89;45.14;100941.44;4964425;28;20042;-65
2022/06/04 12:07:08;;;;;;;15.93;4.70;;;;;;;27.78;45.09;100940.09;4964363;28;20045;-65
2022/06/04 12:10:03;;;;;;;17.50;6.05;;;;;;;28.25;44.22;100929.59;4964483;28;20136;-64
2022/06/04 12:12:48;;;;;;;;;;;;;;;28.01;44.81;100926.84;4965004;28;20054;-65
2022/06/04 12:15:43;;;;;;;15.18;4.97;;;;;;;27.89;45.38;100921.09;4971952;28;19914;-65
2022/06/04 12:18:34;;;;;;;13.65;5.90;;;;;;;27.83;44.91;100918.03;4959641;28;20123;-66
2022/06/04 12:24:40;;;;;;;13.15;5.05;;;;;;;28.22;43.83;100922.88;4968473;28;20066;-65
2022/06/04 12:27:26;;;;;;;13.18;5.07;;;;;;;28.20;43.78;100916.13;4957711;28;20238;-66
2022/06/04 12:30:17;;;;;;;16.50;6.28;;;;;;;28.64;41.91;100918.38;4969098;28;20053;-66
2022/06/04 12:33:10;;;;;;;14.75;6.30;;;;;;;28.51;42.81;100911.84;4969177;28;20041;-66
2022/06/04 12:36:01;;;;;;;19.60;6.80;;;;;;;29.14;41.26;100911.63;4971894;28;20053;-65
2022/06/04 12:38:47;;;;;;;14.68;6.55;;;;;;;28.85;41.44;100915.09;4974703;28;20038;-66
2022/06/04 12:41:44;;;;;;;8.80;4.97;;;;;;;28.80;42.25;100912.81;4967459;28;20058;-65
2022/06/04 12:44:34;;;;;;;16.35;4.68;;;;;;;29.24;40.65;100896.56;4956712;29;20062;-66
2022/06/04 12:47:30;;;;;;;10.40;4.80;;;;;;;28.77;42.27;100905.28;4956637;29;20074;-65
2022/06/04 12:50:16;;;;;;;11.77;5.15;;;;;;;28.52;42.56;100905.03;4962982;28;20046;-66
2022/06/04 12:53:12;;;;;;;9.90;3.70;;;;;;;28.54;42.28;100894.22;4968247;28;20049;-66
2022/06/04 12:56:05;;;;;;;10.80;3.50;;;;;;;28.44;43.10;100901.59;4970000;28;20054;-67
2022/06/04 12:58:53;;;;;;;16.73;4.10;;;;;;;28.38;42.79;100896.97;4969005;28;20572;-67
2022/06/04 13:01:38;;;;;;;11.15;4.85;;;;;;;28.39;41.45;100898.53;4971910;28;20058;-67
2022/06/04 13:04:35;;;;;;;9.82;3.95;;;;;;;28.44;40.77;100901.59;4956506;29;20530;-67
2022/06/04 13:07:25;;;;;;;7.97;3.40;;;;;;;28.57;41.96;100907.31;4956370;28;20042;-66
2022/06/04 13:10:26;;;;;;;18.60;3.50;;;;;;;28.43;41.27;100897.25;4972786;28;20517;-67
2022/06/04 13:13:20;;;;;;;25.35;5.15;;;;;;;28.77;40.09;100896.09;4974502;28;20038;-67
2022/06/04 13:16:16;;;;;;;9.30;3.10;;;;;;;28.70;41.08;100897.00;4973165;28;20049;-67
2022/06/04 13:19:08;;;;;;;6.18;2.88;;;;;;;28.48;41.49;100893.13;4966085;28;20047;-67
2022/06/04 13:21:53;;;;;;;17.15;6.43;;;;;;;28.49;40.64;100891.94;4968386;28;20050;-66
2022/06/04 13:24:39;;;;;;;17.08;4.10;;;;;;;28.64;41.15;100887.59;4974268;28;20054;-67
2022/06/04 13:27:47;;;;;;;16.00;4.43;;;;;;;28.31;42.07;100883.91;4974851;28;20065;-67
2022/06/04 13:30:34;;;;;;;16.08;4.85;;;;;;;28.63;40.39;100880.41;4974214;28;20557;-67